Time;durP1;ratioP1;P1;durP2;ratioP2;P2;SDS_P1;SDS_P2;PMS_P1;PMS_P2;Temp;Humidity;BMP_temperature;BMP_pressure;BME280_temperature;BME280_humidity;BME280_pressure;Samples;Min_cycle;Max_cycle;Signal;HPM_P1;HPM_P2
2022/01/18 00:00:54;;;;;;;53.65;8.82;;;6.60;99.90;;;;;;5112938;28;20016;-78
2022/01/18 00:03:20;;;;;;;69.00;10.15;;;6.70;99.90;;;;;;5113029;28;20143;-78
2022/01/18 00:05:49;;;;;;;74.95;11.68;;;6.70;99.90;;;;;;5114954;27;20045;-77
2022/01/18 00:08:15;;;;;;;78.47;10.10;;;6.70;99.90;;;;;;5133217;27;20024;-77
2022/01/18 00:10:42;;;;;;;73.88;10.77;;;6.60;99.90;;;;;;5133597;27;20054;-78
2022/01/18 00:13:22;;;;;;;56.70;9.95;;;6.60;99.90;;;;;;5132987;27;20373;-77
2022/01/18 00:18:33;;;;;;;79.82;12.05;;;6.60;99.90;;;;;;5133409;27;20015;-78
2022/01/18 00:23:36;;;;;;;73.45;11.95;;;6.70;99.90;;;;;;5133003;27;20031;-78
2022/01/18 00:26:03;;;;;;;95.00;14.63;;;6.70;99.90;;;;;;5133201;27;20023;-78
2022/01/18 00:28:30;;;;;;;70.88;11.35;;;6.70;99.90;;;;;;5132995;27;20027;-78
2022/01/18 00:36:26;;;;;;;74.38;11.65;;;6.60;99.90;;;;;;5112677;28;20020;-78
2022/01/18 00:38:56;;;;;;;67.32;12.70;;;6.60;99.90;;;;;;5093821;28;20107;-78
2022/01/18 00:41:24;;;;;;;88.40;12.70;;;6.70;99.90;;;;;;5111622;28;20098;-78
2022/01/18 00:43:50;;;;;;;70.80;12.55;;;6.70;99.90;;;;;;5112589;28;20019;-78
2022/01/18 00:46:16;;;;;;;105.15;18.80;;;6.70;99.90;;;;;;5112112;28;20120;-78
2022/01/18 00:48:42;;;;;;;71.43;11.93;;;6.70;99.90;;;;;;5112165;28;20030;-78
2022/01/18 00:51:11;;;;;;;84.95;14.20;;;6.70;99.90;;;;;;5112045;28;20028;-78
2022/01/18 00:53:39;;;;;;;103.53;15.05;;;6.70;99.90;;;;;;5116359;28;20028;-78
2022/01/18 00:56:27;;;;;;;78.50;13.75;;;6.70;99.90;;;;;;5098342;28;20419;-78
2022/01/18 00:58:54;;;;;;;101.68;15.35;;;6.70;99.90;;;;;;5114115;27;20356;-78
2022/01/18 01:01:23;;;;;;;132.13;16.52;;;6.70;99.90;;;;;;5147981;27;20568;-78
2022/01/18 01:03:50;;;;;;;78.22;16.23;;;6.60;99.90;;;;;;5138767;27;20029;-78
2022/01/18 01:06:16;;;;;;;102.38;17.52;;;6.60;99.90;;;;;;5146814;27;20027;-78
2022/01/18 01:08:42;;;;;;;124.22;19.13;;;6.60;99.90;;;;;;5136639;27;20102;-78
2022/01/18 01:11:10;;;;;;;102.53;17.52;;;6.50;99.90;;;;;;5136680;27;20031;-78
2022/01/18 01:13:38;;;;;;;98.68;17.05;;;6.50;99.90;;;;;;5136293;27;20031;-78
2022/01/18 01:45:46;;;;;;;168.15;16.83;;;6.20;99.90;;;;;;5072897;28;20020;-78
2022/01/18 01:48:12;;;;;;;338.98;25.77;;;6.20;99.90;;;;;;5073001;28;20585;-78
2022/01/18 01:53:11;;;;;;;375.02;28.50;;;6.10;99.90;;;;;;5115297;28;20028;-78
2022/01/18 01:55:37;;;;;;;284.75;24.20;;;6.10;99.90;;;;;;5115401;28;20015;-78
2022/01/18 01:58:03;;;;;;;244.27;24.35;;;6.00;99.90;;;;;;5115262;28;20023;-78
2022/01/18 02:00:29;;;;;;;136.15;18.23;;;6.00;99.90;;;;;;5115192;28;20488;-78
2022/01/18 02:02:55;;;;;;;150.65;19.15;;;6.10;99.90;;;;;;5115247;28;20072;-78
2022/01/18 02:05:22;;;;;;;179.57;19.90;;;6.10;99.90;;;;;;5115213;28;20019;-78
2022/01/18 02:07:49;;;;;;;154.63;17.17;;;6.00;99.90;;;;;;5134709;27;20027;-78
2022/01/18 02:10:14;;;;;;;138.75;18.00;;;6.10;99.90;;;;;;5136322;27;20030;-78
2022/01/18 02:12:40;;;;;;;142.90;17.90;;;6.00;99.90;;;;;;5135739;27;20106;-78
2022/01/18 02:15:15;;;;;;;210.18;22.95;;;6.00;99.90;;;;;;5135547;27;20047;-78
2022/01/18 02:23:30;;;;;;;118.13;13.30;;;6.10;99.90;;;;;;5135262;27;20038;-78
2022/01/18 02:25:57;;;;;;;75.57;13.95;;;6.10;99.90;;;;;;5116782;27;20039;-78
2022/01/18 02:28:24;;;;;;;92.53;14.63;;;6.10;99.90;;;;;;5135454;27;20042;-78
2022/01/18 02:30:51;;;;;;;100.55;15.50;;;5.90;99.90;;;;;;5135141;27;20019;-78
2022/01/18 02:33:20;;;;;;;111.03;15.15;;;6.00;99.90;;;;;;5135218;27;20027;-78
2022/01/18 02:35:48;;;;;;;126.78;16.48;;;6.00;99.90;;;;;;5135383;27;20024;-78
2022/01/18 02:38:14;;;;;;;270.92;23.10;;;6.00;99.90;;;;;;5135379;27;20057;-78
2022/01/18 02:40:41;;;;;;;281.70;23.08;;;5.90;99.90;;;;;;5135152;27;20027;-78
2022/01/18 02:45:55;;;;;;;241.57;21.45;;;5.70;99.90;;;;;;5135230;27;20529;-78
2022/01/18 02:48:22;;;;;;;157.73;17.85;;;5.70;99.90;;;;;;5134906;27;20038;-78
2022/01/18 02:50:48;;;;;;;121.50;14.30;;;5.70;99.90;;;;;;5134903;27;20027;-78
2022/01/18 02:53:16;;;;;;;161.35;20.33;;;5.80;99.90;;;;;;5134572;27;20509;-78
2022/01/18 02:55:49;;;;;;;71.30;13.32;;;5.80;99.90;;;;;;5134876;27;20477;-78
2022/01/18 02:58:23;;;;;;;79.35;14.20;;;5.90;99.90;;;;;;5123805;27;20027;-78
2022/01/18 03:03:30;;;;;;;91.05;14.00;;;6.00;99.90;;;;;;5114391;28;20027;-78
2022/01/18 03:05:57;;;;;;;145.65;15.90;;;6.00;99.90;;;;;;5117819;27;20031;-78
2022/01/18 03:08:23;;;;;;;285.63;21.60;;;5.90;99.90;;;;;;5134409;27;20081;-78
2022/01/18 03:10:49;;;;;;;228.60;20.38;;;5.90;99.90;;;;;;5134575;27;20031;-79
2022/01/18 03:13:16;;;;;;;81.88;16.20;;;5.80;99.90;;;;;;5134323;27;20070;-78
2022/01/18 03:15:42;;;;;;;331.70;27.08;;;5.80;99.90;;;;;;5133818;27;20046;-78
2022/01/18 03:18:07;;;;;;;89.70;17.05;;;5.80;99.90;;;;;;5134293;27;20019;-78
2022/01/18 03:20:34;;;;;;;352.85;29.45;;;5.90;99.90;;;;;;5134472;27;20030;-78
2022/01/18 03:22:59;;;;;;;325.80;27.45;;;5.90;99.90;;;;;;5134132;27;20049;-78
2022/01/18 03:25:40;;;;;;;50.35;13.90;;;5.80;99.90;;;;;;5134443;27;20441;-79
2022/01/18 03:28:08;;;;;;;230.07;21.30;;;5.80;99.90;;;;;;5134363;27;20030;-78
2022/01/18 03:30:40;;;;;;;403.23;30.40;;;5.70;99.90;;;;;;5122554;27;20057;-78
2022/01/18 03:33:13;;;;;;;349.40;29.35;;;5.60;99.90;;;;;;5113401;28;20059;-78
2022/01/18 03:35:40;;;;;;;372.35;28.02;;;5.60;99.90;;;;;;5113213;28;20446;-78
2022/01/18 03:38:06;;;;;;;232.15;20.05;;;5.60;99.90;;;;;;5113229;28;20073;-78
2022/01/18 03:40:32;;;;;;;260.52;23.15;;;5.60;99.90;;;;;;5113580;28;20030;-78
2022/01/18 03:42:59;;;;;;;233.13;22.50;;;5.60;99.90;;;;;;5113218;28;20027;-78
2022/01/18 03:45:39;;;;;;;256.77;23.85;;;5.50;99.90;;;;;;5113308;28;20028;-78
2022/01/18 03:48:08;;;;;;;330.85;26.45;;;5.50;99.90;;;;;;5113223;28;20494;-78
2022/01/18 03:50:33;;;;;;;158.93;20.95;;;5.50;99.90;;;;;;5113142;28;20051;-78
2022/01/18 03:52:59;;;;;;;361.05;28.92;;;5.50;99.90;;;;;;5113008;28;20059;-78
2022/01/18 03:55:25;;;;;;;204.77;21.52;;;5.50;99.90;;;;;;5113195;28;20020;-78
2022/01/18 03:57:51;;;;;;;256.52;23.88;;;5.50;99.90;;;;;;5120198;27;20027;-78
2022/01/18 04:00:22;;;;;;;354.13;31.05;;;5.50;99.90;;;;;;5133141;27;20027;-78
2022/01/18 04:02:48;;;;;;;249.43;28.95;;;5.50;99.90;;;;;;5133824;27;20394;-78
2022/01/18 04:05:14;;;;;;;112.75;21.52;;;5.40;99.90;;;;;;5133376;27;20027;-78
2022/01/18 04:07:41;;;;;;;176.40;22.30;;;5.50;99.90;;;;;;5115022;27;20503;-78
2022/01/18 04:10:08;;;;;;;181.48;24.00;;;5.60;99.90;;;;;;5133576;27;20031;-78
2022/01/18 04:12:37;;;;;;;241.95;25.88;;;5.50;99.90;;;;;;5133159;27;20115;-78
2022/01/18 04:15:05;;;;;;;262.75;25.70;;;5.40;99.90;;;;;;5133201;27;20070;-78
2022/01/18 04:28:58;;;;;;;173.88;23.45;;;5.40;99.90;;;;;;5133073;27;20023;-78
2022/01/18 04:31:17;;;;;;;240.40;24.20;;;5.40;99.90;;;;;;5113196;27;20031;-78
2022/01/18 04:33:43;;;;;;;140.95;20.25;;;5.30;99.90;;;;;;5112475;28;20023;-78
2022/01/18 04:36:08;;;;;;;222.75;23.45;;;5.20;99.90;;;;;;5112485;28;20016;-78
2022/01/18 04:38:36;;;;;;;123.00;20.00;;;5.20;99.90;;;;;;5112417;28;20038;-78
2022/01/18 04:41:07;;;;;;;207.98;23.02;;;5.30;99.90;;;;;;5112590;28;20031;-78
2022/01/18 04:43:46;;;;;;;184.73;22.88;;;5.30;99.90;;;;;;5112360;28;20110;-78
2022/01/18 04:48:57;;;;;;;130.43;17.85;;;5.30;99.90;;;;;;5112771;28;20092;-78
2022/01/18 04:51:23;;;;;;;329.25;25.33;;;5.20;99.90;;;;;;5112583;28;20330;-78
2022/01/18 04:53:53;;;;;;;201.20;22.83;;;5.10;99.90;;;;;;5112546;28;20027;-78
2022/01/18 04:56:29;;;;;;;166.20;22.50;;;5.20;99.90;;;;;;5112457;28;20024;-78
2022/01/18 04:58:56;;;;;;;158.93;19.00;;;5.20;99.90;;;;;;5112280;28;20385;-78
2022/01/18 05:01:22;;;;;;;254.82;24.63;;;5.10;99.90;;;;;;5112340;28;20052;-78
2022/01/18 05:03:47;;;;;;;304.90;27.13;;;5.10;99.90;;;;;;5112116;28;20028;-78
2022/01/18 05:06:16;;;;;;;232.75;21.45;;;5.10;99.90;;;;;;5118398;28;20066;-78
2022/01/18 05:08:45;;;;;;;111.18;17.05;;;5.20;99.90;;;;;;5132806;28;20027;-78
2022/01/18 05:11:15;;;;;;;350.65;27.35;;;5.10;99.90;;;;;;5114401;28;20027;-78
2022/01/18 05:21:29;;;;;;;98.95;15.65;;;5.00;99.90;;;;;;5132824;28;20035;-78
2022/01/18 05:23:55;;;;;;;79.05;13.75;;;4.90;99.90;;;;;;5132675;28;20027;-78
2022/01/18 05:26:22;;;;;;;179.43;18.88;;;5.00;99.90;;;;;;5132694;28;20038;-78
2022/01/18 05:28:47;;;;;;;74.00;13.32;;;5.00;99.90;;;;;;5132519;28;20034;-78
2022/01/18 05:31:14;;;;;;;160.02;20.00;;;5.00;99.90;;;;;;5115315;28;20106;-78
2022/01/18 05:33:42;;;;;;;209.32;20.55;;;4.90;99.90;;;;;;5093484;28;20023;-78
2022/01/18 05:36:11;;;;;;;112.40;16.80;;;4.80;99.90;;;;;;5112045;28;20024;-78
2022/01/18 05:38:38;;;;;;;314.55;26.00;;;4.90;99.90;;;;;;5096051;28;20040;-78
2022/01/18 05:41:08;;;;;;;116.93;17.27;;;4.90;99.90;;;;;;5115591;28;20041;-78
2022/01/18 05:43:34;;;;;;;231.82;26.90;;;4.90;99.90;;;;;;5115785;28;20057;-78
2022/01/18 05:46:01;;;;;;;306.73;27.77;;;4.90;99.90;;;;;;5115757;28;20055;-78
2022/01/18 05:48:26;;;;;;;254.65;24.67;;;5.00;99.90;;;;;;5115675;28;20055;-78
2022/01/18 05:50:54;;;;;;;325.27;28.02;;;4.90;99.90;;;;;;5115621;28;20070;-78
2022/01/18 05:53:20;;;;;;;239.98;22.52;;;4.90;99.90;;;;;;5115562;28;20424;-78
2022/01/18 05:55:46;;;;;;;242.38;22.50;;;4.80;99.90;;;;;;5115504;28;20038;-78
2022/01/18 05:58:11;;;;;;;207.95;20.60;;;4.80;99.90;;;;;;5115351;28;20073;-78
2022/01/18 06:00:40;;;;;;;183.30;17.10;;;4.70;99.90;;;;;;5115517;28;20026;-78
2022/01/18 06:03:13;;;;;;;93.88;12.85;;;4.70;99.90;;;;;;5115518;28;20481;-78
2022/01/18 06:08:24;;;;;;;152.93;14.60;;;4.70;99.90;;;;;;5136193;27;20038;-78
2022/01/18 06:10:49;;;;;;;102.70;13.85;;;4.70;99.90;;;;;;5135865;27;20027;-78
2022/01/18 06:13:15;;;;;;;139.50;14.38;;;4.70;99.90;;;;;;5135765;27;20054;-78
2022/01/18 06:15:41;;;;;;;261.63;19.05;;;4.70;99.90;;;;;;5135441;27;20054;-78
2022/01/18 06:18:07;;;;;;;145.38;16.27;;;4.70;99.90;;;;;;5135775;27;20027;-78
2022/01/18 06:20:33;;;;;;;326.33;21.65;;;4.80;99.90;;;;;;5135674;27;20026;-78
2022/01/18 06:22:59;;;;;;;211.77;19.08;;;4.80;99.90;;;;;;5135528;27;20024;-78
2022/01/18 06:25:25;;;;;;;225.27;18.25;;;4.80;99.90;;;;;;5116910;27;20045;-78
2022/01/18 06:27:53;;;;;;;144.27;14.60;;;4.80;99.90;;;;;;5135613;27;20027;-78
2022/01/18 06:30:20;;;;;;;73.32;11.93;;;4.70;99.90;;;;;;5126117;27;20127;-78
2022/01/18 06:32:46;;;;;;;71.38;13.88;;;4.80;99.90;;;;;;5114668;28;20035;-78
2022/01/18 06:35:13;;;;;;;80.05;13.88;;;4.90;99.90;;;;;;5114910;28;20035;-78
2022/01/18 06:37:40;;;;;;;196.65;15.68;;;4.90;99.90;;;;;;5114684;28;20022;-78
2022/01/18 06:40:10;;;;;;;89.28;13.35;;;4.80;99.90;;;;;;5114572;28;20045;-78
2022/01/18 06:42:37;;;;;;;145.25;17.10;;;4.90;99.90;;;;;;5114597;28;20102;-78
2022/01/18 06:45:03;;;;;;;104.38;13.68;;;4.80;99.90;;;;;;5114486;28;20028;-78
2022/01/18 06:47:29;;;;;;;123.63;15.50;;;4.90;99.90;;;;;;5114376;28;20024;-78
2022/01/18 06:49:54;;;;;;;86.68;13.52;;;5.00;99.90;;;;;;5113491;28;20028;-78
2022/01/18 06:52:20;;;;;;;332.42;22.58;;;5.00;99.90;;;;;;5114451;28;20043;-78
2022/01/18 06:54:46;;;;;;;119.68;14.88;;;4.90;99.90;;;;;;5114543;28;20024;-78
2022/01/18 06:57:12;;;;;;;205.95;20.38;;;4.90;99.90;;;;;;5114256;28;20103;-78
2022/01/18 06:59:37;;;;;;;259.70;20.27;;;4.90;99.90;;;;;;5114296;28;20027;-78
2022/01/18 07:02:04;;;;;;;94.13;15.43;;;5.00;99.90;;;;;;5114066;28;20035;-78
2022/01/18 07:04:29;;;;;;;145.27;17.10;;;4.90;99.90;;;;;;5095909;28;20020;-78
2022/01/18 07:06:55;;;;;;;243.35;19.60;;;5.00;99.90;;;;;;5126157;27;20071;-78
2022/01/18 07:09:23;;;;;;;313.45;21.55;;;5.00;99.90;;;;;;5134923;27;20099;-78
2022/01/18 07:11:53;;;;;;;108.68;14.63;;;5.00;99.90;;;;;;5134374;27;20385;-78
2022/01/18 07:14:19;;;;;;;390.15;23.88;;;5.00;99.90;;;;;;5134199;27;20041;-78
2022/01/18 07:16:45;;;;;;;83.32;18.73;;;5.00;99.90;;;;;;5133971;27;20130;-78
2022/01/18 07:19:11;;;;;;;118.03;22.52;;;5.10;99.90;;;;;;5133954;27;20027;-78
2022/01/18 07:21:36;;;;;;;364.08;23.55;;;5.10;99.90;;;;;;5134110;27;20031;-78
2022/01/18 07:24:14;;;;;;;171.30;17.55;;;5.00;99.90;;;;;;5133950;27;20023;-78
2022/01/18 07:26:40;;;;;;;236.10;18.40;;;5.00;99.90;;;;;;5134066;27;20027;-78
2022/01/18 07:29:06;;;;;;;303.85;22.80;;;5.00;99.90;;;;;;5133945;27;20023;-79
2022/01/18 07:31:32;;;;;;;195.20;18.52;;;5.00;99.90;;;;;;5133340;27;20101;-78
2022/01/18 07:34:01;;;;;;;193.32;16.55;;;5.00;99.90;;;;;;5133929;27;20118;-78
2022/01/18 07:36:27;;;;;;;271.23;20.73;;;5.00;99.90;;;;;;5134010;27;20031;-78
2022/01/18 07:38:55;;;;;;;135.18;15.60;;;4.90;99.90;;;;;;5133702;27;20023;-78
2022/01/18 07:41:20;;;;;;;345.10;28.27;;;5.00;99.90;;;;;;5134000;27;20027;-78
2022/01/18 07:43:46;;;;;;;89.80;14.88;;;5.00;99.90;;;;;;5133508;27;20027;-78
2022/01/18 07:46:11;;;;;;;89.95;16.63;;;5.00;99.90;;;;;;5115238;27;20555;-78
2022/01/18 07:48:37;;;;;;;318.13;24.27;;;5.10;99.90;;;;;;5133776;27;20019;-78
2022/01/18 07:51:02;;;;;;;178.90;19.42;;;5.00;99.90;;;;;;5114883;27;20023;-78
2022/01/18 07:53:28;;;;;;;256.42;21.52;;;5.00;99.90;;;;;;5133496;27;20023;-78
2022/01/18 07:55:54;;;;;;;162.45;18.15;;;5.00;99.90;;;;;;5133439;27;20038;-79
2022/01/18 07:58:19;;;;;;;366.13;25.23;;;5.10;99.90;;;;;;5122321;27;20035;-78
2022/01/18 08:00:47;;;;;;;167.23;20.75;;;5.00;99.90;;;;;;5113153;28;20020;-77
2022/01/18 08:03:13;;;;;;;157.93;19.60;;;5.00;99.90;;;;;;5115206;27;20042;-79
2022/01/18 08:05:39;;;;;;;130.80;20.35;;;5.00;99.90;;;;;;5122678;27;20031;-78
2022/01/18 08:08:05;;;;;;;247.30;25.98;;;5.00;99.90;;;;;;5127588;27;20105;-77
2022/01/18 08:10:31;;;;;;;211.20;22.77;;;5.00;99.90;;;;;;5124109;27;20031;-79
2022/01/18 08:13:02;;;;;;;156.55;20.73;;;5.00;99.90;;;;;;5106658;27;20041;-78
2022/01/18 08:15:37;;;;;;;125.95;19.67;;;5.00;99.90;;;;;;5124504;27;20045;-79
2022/01/18 08:18:07;;;;;;;213.38;25.25;;;5.10;99.90;;;;;;5123685;27;20445;-79
2022/01/18 08:20:36;;;;;;;137.23;21.95;;;5.10;99.90;;;;;;5125108;27;20035;-78
2022/01/18 08:23:01;;;;;;;439.08;34.05;;;5.10;99.90;;;;;;5127540;27;20031;-78
2022/01/18 08:25:27;;;;;;;121.90;20.90;;;5.10;99.90;;;;;;5123809;27;20023;-78
2022/01/18 08:27:56;;;;;;;88.40;20.17;;;5.20;99.90;;;;;;5127330;27;20035;-78
2022/01/18 08:30:22;;;;;;;408.98;35.50;;;5.30;99.90;;;;;;5126776;27;20035;-80
2022/01/18 08:32:49;;;;;;;153.95;21.75;;;5.30;99.90;;;;;;5125517;27;20092;-78
2022/01/18 08:35:16;;;;;;;327.85;32.33;;;5.20;99.90;;;;;;5132993;27;20465;-78
2022/01/18 08:37:42;;;;;;;201.70;29.63;;;5.20;99.90;;;;;;5132901;27;20121;-79
2022/01/18 08:40:08;;;;;;;171.68;26.27;;;5.30;99.90;;;;;;5133030;27;20054;-79
2022/01/18 08:42:34;;;;;;;100.15;21.75;;;5.30;99.90;;;;;;5132924;27;20019;-78
2022/01/18 08:45:00;;;;;;;89.10;20.75;;;5.20;99.90;;;;;;5133142;27;20108;-79
2022/01/18 08:47:26;;;;;;;303.23;30.88;;;5.30;99.90;;;;;;5133049;28;20103;-78
2022/01/18 08:49:52;;;;;;;348.02;30.80;;;5.30;99.90;;;;;;5133073;27;20374;-79
2022/01/18 08:52:18;;;;;;;223.68;26.35;;;5.20;99.90;;;;;;5133837;28;20084;-80
2022/01/18 08:54:44;;;;;;;253.65;25.75;;;5.20;99.90;;;;;;5133603;28;20020;-78
2022/01/18 08:57:11;;;;;;;151.13;21.30;;;5.00;99.90;;;;;;5131837;28;20031;-79
2022/01/18 08:59:37;;;;;;;238.75;25.63;;;5.00;99.90;;;;;;5113440;28;20016;-79
2022/01/18 09:02:04;;;;;;;386.83;33.55;;;5.10;99.90;;;;;;5114233;28;20107;-80
2022/01/18 09:04:30;;;;;;;238.88;27.05;;;5.00;99.90;;;;;;5134483;28;20016;-81
2022/01/18 09:06:56;;;;;;;169.20;20.00;;;5.00;99.90;;;;;;5133948;28;20098;-79
2022/01/18 09:09:22;;;;;;;161.23;17.55;;;5.10;99.90;;;;;;5134343;28;20038;-80
2022/01/18 09:11:48;;;;;;;162.18;19.25;;;5.20;99.90;;;;;;5133501;27;20027;-81
2022/01/18 09:14:15;;;;;;;70.53;13.75;;;5.30;99.90;;;;;;5137524;27;20030;-80
2022/01/18 09:16:41;;;;;;;139.82;14.50;;;5.40;99.90;;;;;;5134433;27;20042;-81
2022/01/18 09:19:07;;;;;;;188.07;15.45;;;5.30;99.90;;;;;;5137437;27;20357;-78
2022/01/18 09:21:33;;;;;;;236.93;17.05;;;5.40;99.90;;;;;;5137498;27;20034;-81
2022/01/18 09:24:00;;;;;;;87.93;11.27;;;5.40;99.90;;;;;;5137710;27;20023;-81
2022/01/18 09:26:26;;;;;;;48.28;9.98;;;5.50;99.90;;;;;;5138304;27;20106;-83
2022/01/18 09:28:51;;;;;;;298.90;18.38;;;5.50;99.90;;;;;;5137572;27;20063;-83
2022/01/18 09:31:17;;;;;;;208.20;17.52;;;5.40;99.90;;;;;;5137798;27;20130;-84
2022/01/18 09:33:43;;;;;;;66.72;9.48;;;5.20;99.90;;;;;;5137485;27;20041;-83
2022/01/18 09:36:08;;;;;;;150.95;13.98;;;5.20;99.90;;;;;;5119019;27;20118;-83
2022/01/18 09:38:34;;;;;;;213.10;18.13;;;5.40;99.90;;;;;;5137294;27;20011;-83
2022/01/18 09:41:08;;;;;;;100.30;10.77;;;5.30;99.90;;;;;;5137659;27;20061;-83
2022/01/18 09:43:34;;;;;;;187.23;12.10;;;5.20;99.90;;;;;;5137490;27;20464;-83
2022/01/18 09:46:00;;;;;;;70.53;9.93;;;5.10;99.90;;;;;;5137753;27;20118;-83
2022/01/18 09:48:25;;;;;;;77.13;10.70;;;5.30;99.90;;;;;;5137404;27;20031;-84
2022/01/18 09:50:51;;;;;;;134.65;13.35;;;5.30;99.90;;;;;;5137292;27;20034;-84
2022/01/18 09:53:17;;;;;;;272.83;14.73;;;5.30;99.90;;;;;;5118504;27;20023;-83
2022/01/18 09:55:43;;;;;;;394.73;18.83;;;5.10;99.90;;;;;;5137525;27;20110;-83
2022/01/18 09:58:09;;;;;;;210.30;11.10;;;5.00;99.90;;;;;;5127157;27;20026;-84
2022/01/18 10:00:38;;;;;;;323.02;16.67;;;5.20;99.90;;;;;;5116489;28;20030;-83
2022/01/18 10:03:09;;;;;;;313.20;18.65;;;5.20;99.90;;;;;;5116519;28;20023;-78
2022/01/18 10:05:35;;;;;;;351.63;17.67;;;5.20;99.90;;;;;;5116456;28;20035;-81
2022/01/18 10:08:04;;;;;;;348.80;20.15;;;5.30;99.90;;;;;;5129130;27;20061;-78
2022/01/18 10:10:48;;;;;;;362.33;16.42;;;5.10;99.90;;;;;;5135864;27;20038;-77
2022/01/18 10:13:24;;;;;;;360.45;20.02;;;;;;;;;;5135666;27;20099;-78
2022/01/18 10:16:05;;;;;;;321.90;19.25;;;;;;;;;;5135362;27;20051;-77
2022/01/18 10:18:49;;;;;;;268.30;17.50;;;5.10;99.90;;;;;;5135981;27;20351;-78
2022/01/18 10:21:28;;;;;;;151.23;11.10;;;5.00;99.90;;;;;;5132561;27;20030;-77
2022/01/18 10:24:17;;;;;;;183.88;12.70;;;5.10;99.90;;;;;;5135308;27;20027;-78
2022/01/18 10:26:45;;;;;;;336.90;17.17;;;5.10;99.90;;;;;;5032794;28;20987;-78
2022/01/18 10:29:12;;;;;;;277.88;14.80;;;5.00;99.90;;;;;;5032676;28;20435;-78
2022/01/18 10:37:04;;;;;;;103.28;10.98;;;5.10;99.90;;;;;;5031390;28;20028;-79
2022/01/18 10:39:40;;;;;;;115.10;11.02;;;5.20;99.90;;;;;;5011817;28;20113;-80
2022/01/18 10:42:27;;;;;;;167.70;13.23;;;5.30;99.90;;;;;;5027007;28;20034;-79
2022/01/18 10:45:05;;;;;;;153.32;13.15;;;5.50;99.90;;;;;;5031107;28;20061;-80
2022/01/18 10:47:35;;;;;;;204.77;18.45;;;5.50;99.90;;;;;;5029472;28;20029;-80
2022/01/18 10:50:12;;;;;;;261.27;18.65;;;5.40;99.90;;;;;;5030132;28;20472;-80
2022/01/18 10:52:39;;;;;;;271.45;17.38;;;5.40;99.90;;;;;;5030353;28;20033;-79
2022/01/18 10:55:05;;;;;;;204.15;16.13;;;5.10;99.90;;;;;;5014719;28;20021;-80
2022/01/18 10:57:38;;;;;;;248.50;14.18;;;5.10;99.90;;;;;;5031126;28;20034;-79
2022/01/18 11:00:17;;;;;;;249.95;15.05;;;5.00;99.90;;;;;;5029278;28;20472;-80
2022/01/18 11:02:56;;;;;;;192.90;13.45;;;5.00;99.90;;;;;;5034801;27;20045;-80
2022/01/18 11:05:27;;;;;;;164.85;13.63;;;5.00;99.90;;;;;;5115521;27;20102;-79
2022/01/18 11:07:55;;;;;;;82.07;13.83;;;5.10;99.90;;;;;;5134302;27;20447;-79
2022/01/18 11:10:23;;;;;;;161.43;15.82;;;5.30;99.90;;;;;;5135011;27;20280;-80
2022/01/18 11:13:03;;;;;;;191.18;18.50;;;5.40;99.90;;;;;;5134707;27;20046;-79
2022/01/18 11:15:31;;;;;;;209.65;17.50;;;5.30;99.90;;;;;;5135379;27;20043;-81
2022/01/18 11:17:59;;;;;;;193.95;17.08;;;5.30;99.90;;;;;;5116795;27;20027;-80
2022/01/18 11:20:27;;;;;;;191.10;19.83;;;5.40;99.90;;;;;;5134987;27;20039;-81
2022/01/18 11:22:54;;;;;;;215.30;20.08;;;;;;;;;;5137804;27;20038;-80
2022/01/18 11:25:21;;;;;;;185.77;17.80;;;;;;;;;;5118821;27;20114;-80
2022/01/18 11:27:50;;;;;;;259.08;21.75;;;;;;;;;;5137721;27;20061;-79
2022/01/18 11:30:24;;;;;;;120.47;18.42;;;5.20;99.90;;;;;;5120573;27;20030;-79
2022/01/18 11:32:51;;;;;;;155.25;20.70;;;5.10;99.90;;;;;;5123757;27;20027;-79
2022/01/18 11:35:29;;;;;;;84.35;15.25;;;5.20;99.90;;;;;;5122860;27;20465;-79
2022/01/18 11:38:06;;;;;;;142.32;17.92;;;5.40;99.90;;;;;;5126374;27;20124;-79
2022/01/18 11:40:56;;;;;;;115.72;16.33;;;5.20;99.90;;;;;;5106762;27;20420;-79
2022/01/18 11:43:45;;;;;;;66.13;14.15;;;5.30;99.90;;;;;;5126177;27;20019;-80
2022/01/18 11:46:29;;;;;;;154.73;18.67;;;5.60;99.90;;;;;;5031004;28;20133;-79
2022/01/18 11:49:03;;;;;;;112.10;17.65;;;5.60;99.90;;;;;;5023454;28;20553;-79
2022/01/18 11:51:57;;;;;;;168.20;16.88;;;;;;;;;;5029569;28;20124;-79
2022/01/18 11:54:27;;;;;;;190.82;20.52;;;5.30;99.90;;;;;;5029715;28;20581;-83
2022/01/18 11:56:53;;;;;;;166.05;19.02;;;5.20;99.90;;;;;;5031757;28;20252;-83
2022/01/18 11:59:21;;;;;;;126.57;20.02;;;5.40;99.90;;;;;;5031992;28;20033;-83
2022/01/18 12:01:58;;;;;;;64.63;16.35;;;5.50;99.90;;;;;;5031908;28;20033;-83
2022/01/18 12:04:46;;;;;;;105.35;17.85;;;5.60;99.90;;;;;;5031773;28;20026;-83
2022/01/18 12:07:32;;;;;;;157.52;20.48;;;;;;;;;;5032128;28;20075;-83
2022/01/18 12:09:58;;;;;;;156.77;19.73;;;;;;;;;;5032042;28;20483;-83
2022/01/18 12:12:44;;;;;;;105.40;18.15;;;;;;;;;;5031674;28;20037;-83
2022/01/18 12:15:18;;;;;;;197.10;22.80;;;;;;;;;;5012298;28;20037;-83
2022/01/18 12:17:49;;;;;;;77.00;18.42;;;;;;;;;;5020072;28;20091;-79
2022/01/18 12:20:34;;;;;;;139.15;19.52;;;;;;;;;;5010839;28;20021;-80
2022/01/18 12:22:59;;;;;;;79.38;16.55;;;;;;;;;;5071589;27;20028;-78
2022/01/18 12:25:27;;;;;;;57.90;14.63;;;;;;;;;;5128558;27;20377;-77
2022/01/18 12:27:55;;;;;;;133.90;17.48;;;;;;;;;;5121448;27;20373;-77
2022/01/18 12:30:53;;;;;;;107.45;16.48;;;;;;;;;;5128251;27;20055;-77
2022/01/18 12:33:20;;;;;;;174.63;21.13;;;;;;;;;;5125642;27;20080;-77
2022/01/18 12:35:47;;;;;;;59.85;14.88;;;;;;;;;;5129388;27;20088;-81
2022/01/18 12:38:25;;;;;;;110.72;17.05;;;;;;;;;;5134002;27;20050;-81
2022/01/18 12:40:53;;;;;;;218.75;22.25;;;;;;;;;;5134087;27;20107;-80
2022/01/18 12:46:05;;;;;;;144.20;18.83;;;;;;;;;;5127600;27;20066;-76
2022/01/18 12:48:33;;;;;;;171.60;19.75;;;;;;;;;;5112107;28;20385;-77
2022/01/18 12:51:00;;;;;;;137.63;20.23;;;;;;;;;;5125936;28;20106;-77
2022/01/18 12:53:30;;;;;;;138.30;19.75;;;;;;;;;;5133434;28;20149;-79
2022/01/18 12:56:01;;;;;;;147.20;19.67;;;;;;;;;;5113669;28;20023;-75
2022/01/18 12:58:31;;;;;;;164.73;20.15;;;;;;;;;;5113972;28;20488;-75
2022/01/18 13:01:00;;;;;;;126.20;18.10;;;;;;;;;;5132428;28;20034;-75
2022/01/18 13:03:39;;;;;;;85.60;16.15;;;;;;;;;;5132564;28;20019;-75
2022/01/18 13:06:10;;;;;;;142.90;18.95;;;;;;;;;;5132679;28;20076;-75
2022/01/18 13:08:46;;;;;;;178.57;21.83;;;;;;;;;;5132528;28;20024;-75
2022/01/18 13:11:13;;;;;;;140.13;20.88;;;;;;;;;;5132751;28;20046;-75
2022/01/18 13:13:39;;;;;;;158.80;21.45;;;;;;;;;;5132512;28;20030;-75
2022/01/18 13:26:52;;;;;;;103.43;22.98;;;;;;;;;;5132723;28;20059;-75
2022/01/18 13:29:21;;;;;;;99.18;22.70;;;;;;;;;;5131720;28;20139;-75
2022/01/18 13:31:58;;;;;;;173.90;28.20;;;;;;;;;;5111933;28;20031;-76
2022/01/18 13:34:32;;;;;;;113.43;24.23;;;;;;;;;;5111882;28;20036;-75
2022/01/18 13:37:01;;;;;;;180.25;30.83;;;;;;;;;;5111789;28;20076;-75
2022/01/18 13:40:03;;;;;;;173.13;29.77;;;;;;;;;;5111869;28;20016;-75
2022/01/18 13:42:46;;;;;;;142.60;27.17;;;;;;;;;;5048839;28;20495;-75
2022/01/18 13:45:24;;;;;;;111.72;25.52;;;;;;;;;;5049066;28;20041;-75
2022/01/18 13:47:52;;;;;;;143.30;28.58;;;;;;;;;;5048875;28;20060;-75
2022/01/18 13:50:36;;;;;;;123.18;26.35;;;;;;;;;;5048943;28;20037;-75
2022/01/18 13:53:13;;;;;;;95.20;25.08;;;;;;;;;;5048795;28;20031;-75
2022/01/18 13:55:44;;;;;;;95.18;26.13;;;;;;;;;;5048966;28;20025;-75
2022/01/18 13:58:10;;;;;;;98.30;24.98;;;;;;;;;;5058658;28;20154;-76
2022/01/18 14:00:36;;;;;;;106.25;26.27;;;;;;;;;;5072502;28;20035;-75
2022/01/18 14:03:02;;;;;;;93.88;26.70;;;;;;;;;;5072377;28;20083;-75
2022/01/18 14:05:28;;;;;;;110.65;28.02;;;;;;;;;;5072147;28;20021;-75
2022/01/18 14:08:11;;;;;;;115.18;27.58;;;;;;;;;;5072368;28;20039;-75
2022/01/18 14:10:37;;;;;;;105.63;26.88;;;;;;;;;;5055471;28;20569;-75
2022/01/18 14:13:03;;;;;;;104.32;27.02;;;;;;;;;;5072044;28;20418;-75
2022/01/18 14:15:36;;;;;;;99.65;25.60;;;;;;;;;;5076303;28;20116;-75
2022/01/18 14:18:03;;;;;;;110.80;28.13;;;;;;;;;;5115144;28;20020;-75
2022/01/18 14:20:31;;;;;;;92.90;26.30;;;;;;;;;;5114885;28;20455;-75
2022/01/18 14:22:57;;;;;;;81.63;24.95;;;;;;;;;;5113443;28;20493;-75
2022/01/18 14:25:29;;;;;;;95.70;26.88;;;;;;;;;;5114854;28;20031;-75
2022/01/18 14:27:55;;;;;;;87.45;26.60;;;;;;;;;;5114761;28;20080;-75
2022/01/18 14:30:24;;;;;;;73.32;24.63;;;;;;;;;;5116818;27;20083;-75
2022/01/18 14:32:51;;;;;;;80.18;26.00;;;;;;;;;;5116864;27;20432;-75